sensor_id;sensor_type;location;lat;lon;timestamp;pressure;altitude;pressure_sealevel;temperature;humidity
68301;BME280;55146;47.468;18.806;2023-04-26T00:01:17;99398.78;;;9.25;79.97
68301;BME280;55146;47.468;18.806;2023-04-26T00:03:42;99398.78;;;9.25;80.27
68301;BME280;55146;47.468;18.806;2023-04-26T00:06:08;99401.25;;;9.21;80.58
68301;BME280;55146;47.468;18.806;2023-04-26T00:08:37;99403.16;;;9.21;80.83
68301;BME280;55146;47.468;18.806;2023-04-26T00:11:02;99420.19;;;9.18;80.89
68301;BME280;55146;47.468;18.806;2023-04-26T00:13:28;99407.00;;;9.20;80.66
68301;BME280;55146;47.468;18.806;2023-04-26T00:15:53;99413.03;;;9.22;80.58
68301;BME280;55146;47.468;18.806;2023-04-26T00:18:18;99419.63;;;9.21;80.38
68301;BME280;55146;47.468;18.806;2023-04-26T00:20:43;99421.28;;;9.22;80.18
68301;BME280;55146;47.468;18.806;2023-04-26T00:23:09;99421.28;;;9.22;80.15
68301;BME280;55146;47.468;18.806;2023-04-26T00:25:35;99425.66;;;9.23;80.36
68301;BME280;55146;47.468;18.806;2023-04-26T00:28:01;99432.53;;;9.20;80.32
68301;BME280;55146;47.468;18.806;2023-04-26T00:30:26;99437.47;;;9.23;80.12
68301;BME280;55146;47.468;18.806;2023-04-26T00:32:52;99438.00;;;9.25;79.94
68301;BME280;55146;47.468;18.806;2023-04-26T00:35:17;99438.56;;;9.22;79.93
68301;BME280;55146;47.468;18.806;2023-04-26T00:37:43;99445.41;;;9.20;79.79
68301;BME280;55146;47.468;18.806;2023-04-26T00:40:09;99446.78;;;9.22;79.70
68301;BME280;55146;47.468;18.806;2023-04-26T00:42:34;99448.16;;;9.20;79.58
68301;BME280;55146;47.468;18.806;2023-04-26T00:45:00;99448.75;;;9.17;79.80
68301;BME280;55146;47.468;18.806;2023-04-26T00:47:25;99443.56;;;9.10;79.87
68301;BME280;55146;47.468;18.806;2023-04-26T00:49:53;99441.91;;;9.09;79.88
68301;BME280;55146;47.468;18.806;2023-04-26T00:52:18;99445.75;;;9.08;79.86
68301;BME280;55146;47.468;18.806;2023-04-26T00:54:44;99447.16;;;9.06;79.97
68301;BME280;55146;47.468;18.806;2023-04-26T00:57:09;99438.91;;;9.06;79.74
68301;BME280;55146;47.468;18.806;2023-04-26T00:59:36;99444.13;;;9.02;79.44
68301;BME280;55146;47.468;18.806;2023-04-26T01:02:02;99447.97;;;8.96;79.57
68301;BME280;55146;47.468;18.806;2023-04-26T01:04:28;99446.66;;;8.93;79.90
68301;BME280;55146;47.468;18.806;2023-04-26T01:06:55;99449.41;;;8.83;79.80
68301;BME280;55146;47.468;18.806;2023-04-26T01:09:21;99459.03;;;8.81;80.01
68301;BME280;55146;47.468;18.806;2023-04-26T01:11:46;99456.00;;;8.77;80.33
68301;BME280;55146;47.468;18.806;2023-04-26T01:14:13;99459.03;;;8.71;80.75
68301;BME280;55146;47.468;18.806;2023-04-26T01:16:39;99457.69;;;8.68;81.09
68301;BME280;55146;47.468;18.806;2023-04-26T01:19:09;99458.19;;;8.70;80.83
68301;BME280;55146;47.468;18.806;2023-04-26T01:21:38;99460.13;;;8.65;81.05
68301;BME280;55146;47.468;18.806;2023-04-26T01:24:04;99467.28;;;8.61;80.98
68301;BME280;55146;47.468;18.806;2023-04-26T01:26:30;99471.38;;;8.58;81.28
68301;BME280;55146;47.468;18.806;2023-04-26T01:28:56;99470.31;;;8.54;81.36
68301;BME280;55146;47.468;18.806;2023-04-26T01:31:21;99469.47;;;8.59;81.31
68301;BME280;55146;47.468;18.806;2023-04-26T01:33:47;99473.34;;;8.58;81.21
68301;BME280;55146;47.468;18.806;2023-04-26T01:36:12;99470.03;;;8.56;81.18
68301;BME280;55146;47.468;18.806;2023-04-26T01:38:37;99475.78;;;8.59;81.46
68301;BME280;55146;47.468;18.806;2023-04-26T01:41:03;99471.69;;;8.57;81.54
68301;BME280;55146;47.468;18.806;2023-04-26T01:43:28;99469.22;;;8.55;81.69
68301;BME280;55146;47.468;18.806;2023-04-26T01:45:54;99478.81;;;8.52;81.92
68301;BME280;55146;47.468;18.806;2023-04-26T01:48:19;99470.59;;;8.47;82.29
68301;BME280;55146;47.468;18.806;2023-04-26T01:50:45;99476.34;;;8.46;82.91
68301;BME280;55146;47.468;18.806;2023-04-26T01:53:10;99482.66;;;8.46;82.61
68301;BME280;55146;47.468;18.806;2023-04-26T01:55:35;99483.47;;;8.52;82.75
68301;BME280;55146;47.468;18.806;2023-04-26T01:58:01;99482.66;;;8.46;83.13
68301;BME280;55146;47.468;18.806;2023-04-26T02:00:28;99490.06;;;8.56;82.45
68301;BME280;55146;47.468;18.806;2023-04-26T02:02:56;99479.91;;;8.57;82.35
68301;BME280;55146;47.468;18.806;2023-04-26T02:05:22;99485.91;;;8.59;82.46
68301;BME280;55146;47.468;18.806;2023-04-26T02:07:48;99485.41;;;8.57;82.58
68301;BME280;55146;47.468;18.806;2023-04-26T02:10:13;99487.84;;;8.58;82.48
68301;BME280;55146;47.468;18.806;2023-04-26T02:12:38;99489.75;;;8.52;82.32
68301;BME280;55146;47.468;18.806;2023-04-26T02:15:04;99487.56;;;8.55;82.00
68301;BME280;55146;47.468;18.806;2023-04-26T02:17:30;99491.97;;;8.56;82.02
68301;BME280;55146;47.468;18.806;2023-04-26T02:19:55;99490.56;;;8.58;81.80
68301;BME280;55146;47.468;18.806;2023-04-26T02:22:22;99493.62;;;8.57;81.94
68301;BME280;55146;47.468;18.806;2023-04-26T02:24:49;99498.28;;;8.51;82.03
68301;BME280;55146;47.468;18.806;2023-04-26T02:27:15;99504.87;;;8.45;82.36
68301;BME280;55146;47.468;18.806;2023-04-26T02:29:41;99502.41;;;8.38;82.01
68301;BME280;55146;47.468;18.806;2023-04-26T02:32:06;99499.38;;;8.35;82.08
68301;BME280;55146;47.468;18.806;2023-04-26T02:34:32;99501.28;;;8.34;82.15
68301;BME280;55146;47.468;18.806;2023-04-26T02:36:58;99498.28;;;8.36;82.38
68301;BME280;55146;47.468;18.806;2023-04-26T02:39:23;99505.41;;;8.37;82.05
68301;BME280;55146;47.468;18.806;2023-04-26T02:41:48;99504.56;;;8.26;81.90
68301;BME280;55146;47.468;18.806;2023-04-26T02:44:15;99512.78;;;8.26;82.04
68301;BME280;55146;47.468;18.806;2023-04-26T02:46:41;99513.06;;;8.25;82.17
68301;BME280;55146;47.468;18.806;2023-04-26T02:49:06;99515.53;;;8.26;82.22
68301;BME280;55146;47.468;18.806;2023-04-26T02:51:31;99517.16;;;8.17;82.28
68301;BME280;55146;47.468;18.806;2023-04-26T02:53:57;99521.28;;;8.20;82.15
68301;BME280;55146;47.468;18.806;2023-04-26T02:56:23;99522.06;;;8.10;82.25
68301;BME280;55146;47.468;18.806;2023-04-26T02:58:48;99525.38;;;8.12;82.54
68301;BME280;55146;47.468;18.806;2023-04-26T03:01:13;99529.75;;;8.18;82.40
68301;BME280;55146;47.468;18.806;2023-04-26T03:03:39;99521.81;;;8.11;81.97
68301;BME280;55146;47.468;18.806;2023-04-26T03:06:05;99533.59;;;8.17;81.83
68301;BME280;55146;47.468;18.806;2023-04-26T03:08:30;99533.59;;;8.17;81.84
68301;BME280;55146;47.468;18.806;2023-04-26T03:10:55;99540.16;;;8.11;82.11
68301;BME280;55146;47.468;18.806;2023-04-26T03:13:24;99546.19;;;8.08;82.16
68301;BME280;55146;47.468;18.806;2023-04-26T03:15:49;99550.28;;;8.05;82.43
68301;BME280;55146;47.468;18.806;2023-04-26T03:18:16;99552.72;;;7.97;83.10
68301;BME280;55146;47.468;18.806;2023-04-26T03:20:42;99551.09;;;8.01;83.13
68301;BME280;55146;47.468;18.806;2023-04-26T03:23:07;99548.38;;;7.96;83.44
68301;BME280;55146;47.468;18.806;2023-04-26T03:25:33;99551.63;;;8.03;83.34
68301;BME280;55146;47.468;18.806;2023-04-26T03:27:58;99549.72;;;8.03;83.10
68301;BME280;55146;47.468;18.806;2023-04-26T03:30:23;99554.94;;;8.05;82.87
68301;BME280;55146;47.468;18.806;2023-04-26T03:32:49;99557.69;;;8.05;82.98
68301;BME280;55146;47.468;18.806;2023-04-26T03:35:14;99562.59;;;8.03;82.77
68301;BME280;55146;47.468;18.806;2023-04-26T03:37:40;99560.16;;;8.06;82.61
68301;BME280;55146;47.468;18.806;2023-04-26T03:40:07;99558.25;;;8.07;82.45
68301;BME280;55146;47.468;18.806;2023-04-26T03:42:33;99548.09;;;8.07;81.89
68301;BME280;55146;47.468;18.806;2023-04-26T03:44:58;99562.91;;;8.06;81.89
68301;BME280;55146;47.468;18.806;2023-04-26T03:47:23;99565.63;;;8.06;82.06
68301;BME280;55146;47.468;18.806;2023-04-26T03:49:49;99569.72;;;8.04;81.69
68301;BME280;55146;47.468;18.806;2023-04-26T03:52:14;99566.97;;;8.04;81.57
68301;BME280;55146;47.468;18.806;2023-04-26T03:54:39;99567.28;;;8.07;81.35
68301;BME280;55146;47.468;18.806;2023-04-26T03:57:05;99574.37;;;8.08;81.01
68301;BME280;55146;47.468;18.806;2023-04-26T03:59:31;99578.19;;;8.02;80.86
68301;BME280;55146;47.468;18.806;2023-04-26T04:01:56;99579.59;;;8.00;80.59
68301;BME280;55146;47.468;18.806;2023-04-26T04:04:22;99575.75;;;7.96;80.65
68301;BME280;55146;47.468;18.806;2023-04-26T04:06:47;99584.19;;;7.84;80.50
68301;BME280;55146;47.468;18.806;2023-04-26T04:09:13;99584.97;;;7.75;80.57
68301;BME280;55146;47.468;18.806;2023-04-26T04:11:38;99586.62;;;7.70;80.79
68301;BME280;55146;47.468;18.806;2023-04-26T04:14:03;99593.72;;;7.71;81.06
68301;BME280;55146;47.468;18.806;2023-04-26T04:16:29;99602.19;;;7.65;81.11
68301;BME280;55146;47.468;18.806;2023-04-26T04:18:54;99612.59;;;7.68;81.16
68301;BME280;55146;47.468;18.806;2023-04-26T04:21:20;99612.84;;;7.61;82.19
68301;BME280;55146;47.468;18.806;2023-04-26T04:23:45;99604.37;;;7.63;81.98
68301;BME280;55146;47.468;18.806;2023-04-26T04:26:10;99618.31;;;7.56;82.76
68301;BME280;55146;47.468;18.806;2023-04-26T04:28:38;99623.50;;;7.58;83.12
68301;BME280;55146;47.468;18.806;2023-04-26T04:31:03;99622.44;;;7.64;82.60
68301;BME280;55146;47.468;18.806;2023-04-26T04:33:29;99628.19;;;7.67;82.26
68301;BME280;55146;47.468;18.806;2023-04-26T04:35:54;99626.84;;;7.70;82.64
68301;BME280;55146;47.468;18.806;2023-04-26T04:38:20;99634.75;;;7.61;80.76
68301;BME280;55146;47.468;18.806;2023-04-26T04:40:48;99635.28;;;7.58;82.15
68301;BME280;55146;47.468;18.806;2023-04-26T04:43:16;99641.31;;;7.65;81.56
68301;BME280;55146;47.468;18.806;2023-04-26T04:45:42;99637.78;;;7.65;80.92
68301;BME280;55146;47.468;18.806;2023-04-26T04:48:07;99638.03;;;7.63;81.57
68301;BME280;55146;47.468;18.806;2023-04-26T04:50:33;99644.88;;;7.66;81.56
68301;BME280;55146;47.468;18.806;2023-04-26T04:53:00;99651.78;;;7.73;81.21
68301;BME280;55146;47.468;18.806;2023-04-26T04:55:25;99651.78;;;7.79;80.66
68301;BME280;55146;47.468;18.806;2023-04-26T04:57:51;99661.41;;;7.81;80.98
68301;BME280;55146;47.468;18.806;2023-04-26T05:00:16;99660.56;;;7.81;80.48
68301;BME280;55146;47.468;18.806;2023-04-26T05:02:42;99664.13;;;7.76;81.03
68301;BME280;55146;47.468;18.806;2023-04-26T05:05:07;99657.59;;;7.87;80.29
68301;BME280;55146;47.468;18.806;2023-04-26T05:07:33;99659.50;;;7.92;78.65
68301;BME280;55146;47.468;18.806;2023-04-26T05:09:59;99665.56;;;7.94;78.04
68301;BME280;55146;47.468;18.806;2023-04-26T05:12:25;99669.94;;;7.95;79.65
68301;BME280;55146;47.468;18.806;2023-04-26T05:14:50;99667.78;;;8.02;78.99
68301;BME280;55146;47.468;18.806;2023-04-26T05:17:16;99665.06;;;8.07;76.24
68301;BME280;55146;47.468;18.806;2023-04-26T05:19:41;99668.34;;;8.09;76.87
68301;BME280;55146;47.468;18.806;2023-04-26T05:22:06;99673.06;;;8.24;75.36
68301;BME280;55146;47.468;18.806;2023-04-26T05:24:32;99669.75;;;8.22;75.79
68301;BME280;55146;47.468;18.806;2023-04-26T05:26:58;99677.16;;;8.21;75.46
68301;BME280;55146;47.468;18.806;2023-04-26T05:29:27;99678.06;;;8.32;74.97
68301;BME280;55146;47.468;18.806;2023-04-26T05:31:53;99668.19;;;8.31;74.09
68301;BME280;55146;47.468;18.806;2023-04-26T05:34:18;99669.84;;;8.32;73.27
68301;BME280;55146;47.468;18.806;2023-04-26T05:36:43;99667.66;;;8.44;73.04
68301;BME280;55146;47.468;18.806;2023-04-26T05:39:10;99671.81;;;8.51;72.54
68301;BME280;55146;47.468;18.806;2023-04-26T05:41:36;99666.59;;;8.55;71.92
68301;BME280;55146;47.468;18.806;2023-04-26T05:44:02;99667.16;;;8.67;73.19
68301;BME280;55146;47.468;18.806;2023-04-26T05:46:27;99663.06;;;8.70;71.07
68301;BME280;55146;47.468;18.806;2023-04-26T05:48:53;99663.31;;;8.78;71.93
68301;BME280;55146;47.468;18.806;2023-04-26T05:51:19;99662.22;;;8.79;69.73
68301;BME280;55146;47.468;18.806;2023-04-26T05:53:45;99664.13;;;8.84;68.63
68301;BME280;55146;47.468;18.806;2023-04-26T05:56:10;99661.69;;;8.92;68.41
68301;BME280;55146;47.468;18.806;2023-04-26T06:05:12;99677.06;;;9.19;66.34
68301;BME280;55146;47.468;18.806;2023-04-26T06:07:37;99676.47;;;9.37;65.87
68301;BME280;55146;47.468;18.806;2023-04-26T06:10:03;99675.31;;;9.63;65.20
68301;BME280;55146;47.468;18.806;2023-04-26T06:12:29;99672.28;;;9.70;62.72
68301;BME280;55146;47.468;18.806;2023-04-26T06:14:54;99679.34;;;9.96;62.42
68301;BME280;55146;47.468;18.806;2023-04-26T06:17:19;99675.13;;;10.14;60.50
68301;BME280;55146;47.468;18.806;2023-04-26T06:19:45;99669.88;;;10.28;58.71
68301;BME280;55146;47.468;18.806;2023-04-26T06:22:11;99665.94;;;10.49;58.72
68301;BME280;55146;47.468;18.806;2023-04-26T06:24:36;99663.38;;;10.58;59.24
68301;BME280;55146;47.468;18.806;2023-04-26T06:27:01;99669.94;;;10.67;57.81
68301;BME280;55146;47.468;18.806;2023-04-26T06:29:29;99661.72;;;10.95;55.97
68301;BME280;55146;47.468;18.806;2023-04-26T06:31:55;99667.34;;;11.14;55.12
68301;BME280;55146;47.468;18.806;2023-04-26T06:34:20;99667.91;;;11.11;56.14
68301;BME280;55146;47.468;18.806;2023-04-26T06:36:45;99673.94;;;11.47;56.91
68301;BME280;55146;47.468;18.806;2023-04-26T06:39:11;99672.94;;;11.62;55.14
68301;BME280;55146;47.468;18.806;2023-04-26T06:41:36;99678.66;;;11.70;53.89
68301;BME280;55146;47.468;18.806;2023-04-26T06:44:02;99676.28;;;11.88;52.66
68301;BME280;55146;47.468;18.806;2023-04-26T06:46:27;99677.38;;;11.87;52.82
68301;BME280;55146;47.468;18.806;2023-04-26T06:48:53;99680.81;;;12.02;52.68
68301;BME280;55146;47.468;18.806;2023-04-26T06:51:19;99675.63;;;11.96;50.81
68301;BME280;55146;47.468;18.806;2023-04-26T06:53:44;99689.72;;;12.37;53.71
68301;BME280;55146;47.468;18.806;2023-04-26T06:56:10;99678.88;;;12.45;50.90
68301;BME280;55146;47.468;18.806;2023-04-26T06:58:35;99690.66;;;12.88;53.44
68301;BME280;55146;47.468;18.806;2023-04-26T07:01:01;99676.78;;;12.75;52.17
68301;BME280;55146;47.468;18.806;2023-04-26T07:03:26;99683.84;;;12.81;51.15
68301;BME280;55146;47.468;18.806;2023-04-26T07:05:54;99694.06;;;13.18;50.58
68301;BME280;55146;47.468;18.806;2023-04-26T07:08:20;99688.97;;;13.25;49.57
68301;BME280;55146;47.468;18.806;2023-04-26T07:10:45;99693.06;;;13.27;48.86
68301;BME280;55146;47.468;18.806;2023-04-26T07:13:11;99700.84;;;13.25;50.14
68301;BME280;55146;47.468;18.806;2023-04-26T07:15:36;99701.44;;;13.55;49.31
68301;BME280;55146;47.468;18.806;2023-04-26T07:18:01;99704.34;;;13.77;50.43
68301;BME280;55146;47.468;18.806;2023-04-26T07:20:27;99703.25;;;13.92;49.38
68301;BME280;55146;47.468;18.806;2023-04-26T07:22:52;99709.72;;;14.01;48.62
68301;BME280;55146;47.468;18.806;2023-04-26T07:25:18;99714.75;;;14.12;46.89
68301;BME280;55146;47.468;18.806;2023-04-26T07:27:43;99718.94;;;14.24;47.46
68301;BME280;55146;47.468;18.806;2023-04-26T07:30:09;99716.06;;;14.15;47.54
68301;BME280;55146;47.468;18.806;2023-04-26T07:32:34;99717.38;;;14.04;46.42
68301;BME280;55146;47.468;18.806;2023-04-26T07:35:01;99726.31;;;14.28;47.86
68301;BME280;55146;47.468;18.806;2023-04-26T07:37:26;99724.03;;;14.03;47.69
68301;BME280;55146;47.468;18.806;2023-04-26T07:39:52;99730.84;;;14.38;46.95
68301;BME280;55146;47.468;18.806;2023-04-26T07:42:17;99721.97;;;14.63;45.32
68301;BME280;55146;47.468;18.806;2023-04-26T07:44:42;99724.97;;;14.67;44.87
68301;BME280;55146;47.468;18.806;2023-04-26T07:47:11;99732.66;;;15.06;45.79
68301;BME280;55146;47.468;18.806;2023-04-26T07:49:38;99728.47;;;15.30;45.72
68301;BME280;55146;47.468;18.806;2023-04-26T07:52:03;99730.41;;;14.94;43.42
68301;BME280;55146;47.468;18.806;2023-04-26T07:54:28;99731.50;;;14.71;40.99
68301;BME280;55146;47.468;18.806;2023-04-26T07:56:54;99729.91;;;14.56;43.30
68301;BME280;55146;47.468;18.806;2023-04-26T07:59:19;99730.62;;;14.62;42.70
68301;BME280;55146;47.468;18.806;2023-04-26T08:01:45;99739.00;;;14.70;42.49
68301;BME280;55146;47.468;18.806;2023-04-26T08:04:10;99741.78;;;15.06;42.78
68301;BME280;55146;47.468;18.806;2023-04-26T08:06:35;99746.97;;;15.21;43.12
68301;BME280;55146;47.468;18.806;2023-04-26T08:09:02;99742.44;;;14.89;40.59
68301;BME280;55146;47.468;18.806;2023-04-26T08:11:29;99745.88;;;15.31;41.71
68301;BME280;55146;47.468;18.806;2023-04-26T08:13:54;99748.75;;;15.39;39.95
68301;BME280;55146;47.468;18.806;2023-04-26T08:16:20;99751.72;;;15.65;39.96
68301;BME280;55146;47.468;18.806;2023-04-26T08:18:45;99743.69;;;15.86;38.69
68301;BME280;55146;47.468;18.806;2023-04-26T08:21:11;99756.03;;;16.11;41.89
68301;BME280;55146;47.468;18.806;2023-04-26T08:23:36;99757.37;;;16.13;40.64
68301;BME280;55146;47.468;18.806;2023-04-26T08:26:02;99743.91;;;16.29;39.98
68301;BME280;55146;47.468;18.806;2023-04-26T08:28:27;99765.78;;;16.31;39.96
68301;BME280;55146;47.468;18.806;2023-04-26T08:30:52;99764.63;;;16.23;38.71
68301;BME280;55146;47.468;18.806;2023-04-26T08:33:18;99768.66;;;16.56;38.84
68301;BME280;55146;47.468;18.806;2023-04-26T08:35:43;99767.34;;;16.14;38.93
68301;BME280;55146;47.468;18.806;2023-04-26T08:38:09;99769.41;;;16.40;38.79
68301;BME280;55146;47.468;18.806;2023-04-26T08:40:35;99765.97;;;16.34;39.04
68301;BME280;55146;47.468;18.806;2023-04-26T08:43:00;99769.12;;;16.50;36.24
68301;BME280;55146;47.468;18.806;2023-04-26T08:45:25;99781.38;;;15.87;37.71
68301;BME280;55146;47.468;18.806;2023-04-26T08:48:04;99773.41;;;15.86;38.26
68301;BME280;55146;47.468;18.806;2023-04-26T08:50:32;99768.78;;;16.12;38.66
68301;BME280;55146;47.468;18.806;2023-04-26T08:52:58;99776.25;;;16.42;37.03
68301;BME280;55146;47.468;18.806;2023-04-26T08:55:24;99775.03;;;16.57;37.98
68301;BME280;55146;47.468;18.806;2023-04-26T08:57:50;99775.59;;;16.76;36.89
68301;BME280;55146;47.468;18.806;2023-04-26T09:00:16;99787.72;;;16.41;37.80
68301;BME280;55146;47.468;18.806;2023-04-26T09:02:47;99780.00;;;15.98;38.39
68301;BME280;55146;47.468;18.806;2023-04-26T09:05:12;99792.28;;;15.39;39.31
68301;BME280;55146;47.468;18.806;2023-04-26T09:07:44;99796.66;;;15.54;40.96
68301;BME280;55146;47.468;18.806;2023-04-26T09:10:12;99790.38;;;16.24;41.64
68301;BME280;55146;47.468;18.806;2023-04-26T09:12:38;99781.38;;;16.09;37.96
68301;BME280;55146;47.468;18.806;2023-04-26T09:15:04;99780.25;;;15.88;37.89
68301;BME280;55146;47.468;18.806;2023-04-26T09:17:33;99772.87;;;15.84;39.32
68301;BME280;55146;47.468;18.806;2023-04-26T09:20:00;99782.50;;;15.55;37.83
68301;BME280;55146;47.468;18.806;2023-04-26T09:22:33;99778.59;;;15.07;38.55
68301;BME280;55146;47.468;18.806;2023-04-26T09:25:01;99791.47;;;14.89;40.10
68301;BME280;55146;47.468;18.806;2023-04-26T09:27:32;99787.22;;;14.55;40.48
68301;BME280;55146;47.468;18.806;2023-04-26T09:35:28;99782.75;;;14.27;40.01
68301;BME280;55146;47.468;18.806;2023-04-26T09:40:25;99777.75;;;15.56;41.95
68301;BME280;55146;47.468;18.806;2023-04-26T09:43:05;99776.47;;;16.46;38.28
68301;BME280;55146;47.468;18.806;2023-04-26T09:45:32;99779.59;;;16.53;37.25
68301;BME280;55146;47.468;18.806;2023-04-26T09:48:20;99772.69;;;16.11;35.85
68301;BME280;55146;47.468;18.806;2023-04-26T09:50:52;99776.44;;;15.53;38.67
68301;BME280;55146;47.468;18.806;2023-04-26T09:55:50;99781.69;;;15.41;37.98
68301;BME280;55146;47.468;18.806;2023-04-26T09:58:16;99778.97;;;14.91;41.75
68301;BME280;55146;47.468;18.806;2023-04-26T10:00:41;99790.44;;;15.34;42.18
68301;BME280;55146;47.468;18.806;2023-04-26T10:03:07;99776.53;;;15.93;41.78
68301;BME280;55146;47.468;18.806;2023-04-26T10:05:33;99782.03;;;16.54;39.39
68301;BME280;55146;47.468;18.806;2023-04-26T10:07:58;99782.78;;;15.98;35.68
68301;BME280;55146;47.468;18.806;2023-04-26T10:10:24;99788.94;;;15.51;37.33
68301;BME280;55146;47.468;18.806;2023-04-26T10:12:50;99784.97;;;16.10;39.66
68301;BME280;55146;47.468;18.806;2023-04-26T10:15:17;99775.72;;;16.23;37.02
68301;BME280;55146;47.468;18.806;2023-04-26T10:17:43;99787.00;;;15.15;37.49
68301;BME280;55146;47.468;18.806;2023-04-26T10:20:11;99783.53;;;15.10;37.85
68301;BME280;55146;47.468;18.806;2023-04-26T10:22:55;99782.22;;;15.65;38.27
68301;BME280;55146;47.468;18.806;2023-04-26T10:25:35;99775.91;;;15.96;38.12
68301;BME280;55146;47.468;18.806;2023-04-26T10:28:01;99774.44;;;16.69;37.90
68301;BME280;55146;47.468;18.806;2023-04-26T10:30:27;99776.84;;;16.62;35.46
68301;BME280;55146;47.468;18.806;2023-04-26T10:33:09;99777.31;;;16.15;35.87
68301;BME280;55146;47.468;18.806;2023-04-26T10:35:35;99770.59;;;15.55;36.93
68301;BME280;55146;47.468;18.806;2023-04-26T10:40:28;99778.31;;;15.89;37.36
68301;BME280;55146;47.468;18.806;2023-04-26T10:45:47;99786.84;;;15.12;36.75
68301;BME280;55146;47.468;18.806;2023-04-26T10:59:10;99783.56;;;14.96;37.66
68301;BME280;55146;47.468;18.806;2023-04-26T11:01:36;99789.06;;;14.74;36.62
68301;BME280;55146;47.468;18.806;2023-04-26T11:04:09;99788.22;;;14.87;37.49
68301;BME280;55146;47.468;18.806;2023-04-26T11:06:55;99789.88;;;14.61;36.18
68301;BME280;55146;47.468;18.806;2023-04-26T11:09:40;99790.41;;;15.12;38.01
68301;BME280;55146;47.468;18.806;2023-04-26T11:12:13;99781.34;;;15.78;37.97
68301;BME280;55146;47.468;18.806;2023-04-26T11:14:43;99757.87;;;15.62;33.34
68301;BME280;55146;47.468;18.806;2023-04-26T11:17:10;99772.63;;;15.13;36.53
68301;BME280;55146;47.468;18.806;2023-04-26T11:19:36;99782.56;;;14.92;36.32
68301;BME280;55146;47.468;18.806;2023-04-26T11:22:04;99792.94;;;14.45;37.09
68301;BME280;55146;47.468;18.806;2023-04-26T11:24:30;99787.63;;;14.49;34.50
68301;BME280;55146;47.468;18.806;2023-04-26T11:26:56;99784.34;;;14.47;36.31
68301;BME280;55146;47.468;18.806;2023-04-26T11:29:24;99792.41;;;14.30;36.22
68301;BME280;55146;47.468;18.806;2023-04-26T11:31:55;99782.38;;;14.75;37.46
68301;BME280;55146;47.468;18.806;2023-04-26T11:34:31;99784.03;;;15.48;33.64
68301;BME280;55146;47.468;18.806;2023-04-26T11:36:57;99779.75;;;15.86;33.55
68301;BME280;55146;47.468;18.806;2023-04-26T11:39:23;99779.87;;;16.12;33.80
68301;BME280;55146;47.468;18.806;2023-04-26T11:41:49;99781.91;;;16.20;34.36
68301;BME280;55146;47.468;18.806;2023-04-26T11:44:18;99793.88;;;16.29;34.81
68301;BME280;55146;47.468;18.806;2023-04-26T11:46:46;99784.81;;;16.15;31.50
68301;BME280;55146;47.468;18.806;2023-04-26T11:49:12;99780.34;;;16.05;33.86
68301;BME280;55146;47.468;18.806;2023-04-26T11:51:37;99786.91;;;16.09;35.29
68301;BME280;55146;47.468;18.806;2023-04-26T11:54:03;99779.09;;;16.51;35.15
68301;BME280;55146;47.468;18.806;2023-04-26T11:56:29;99780.31;;;16.67;38.87
68301;BME280;55146;47.468;18.806;2023-04-26T11:58:55;99776.59;;;16.97;34.80
68301;BME280;55146;47.468;18.806;2023-04-26T12:01:23;99790.47;;;16.72;32.38
68301;BME280;55146;47.468;18.806;2023-04-26T12:03:51;99795.31;;;16.27;32.54
68301;BME280;55146;47.468;18.806;2023-04-26T12:06:17;99801.81;;;15.69;34.56
68301;BME280;55146;47.468;18.806;2023-04-26T12:08:49;99798.53;;;15.09;33.38
68301;BME280;55146;47.468;18.806;2023-04-26T12:11:17;99786.94;;;15.43;34.14
68301;BME280;55146;47.468;18.806;2023-04-26T12:13:44;99782.03;;;15.62;35.73
68301;BME280;55146;47.468;18.806;2023-04-26T12:16:11;99778.16;;;15.94;32.70
68301;BME280;55146;47.468;18.806;2023-04-26T12:18:37;99777.12;;;16.12;33.89
68301;BME280;55146;47.468;18.806;2023-04-26T12:21:02;99783.50;;;15.46;34.68
68301;BME280;55146;47.468;18.806;2023-04-26T12:23:36;99783.56;;;14.96;34.44
68301;BME280;55146;47.468;18.806;2023-04-26T12:26:03;99787.31;;;14.64;36.57
68301;BME280;55146;47.468;18.806;2023-04-26T12:28:29;99789.34;;;14.45;38.34
68301;BME280;55146;47.468;18.806;2023-04-26T12:30:54;99787.31;;;14.64;38.81
68301;BME280;55146;47.468;18.806;2023-04-26T12:33:20;99799.41;;;14.54;36.54
68301;BME280;55146;47.468;18.806;2023-04-26T12:35:48;99795.72;;;14.45;34.97
68301;BME280;55146;47.468;18.806;2023-04-26T12:38:13;99798.19;;;14.61;36.38
68301;BME280;55146;47.468;18.806;2023-04-26T12:40:41;99800.63;;;15.25;39.33
68301;BME280;55146;47.468;18.806;2023-04-26T12:43:06;99798.75;;;15.70;34.95
68301;BME280;55146;47.468;18.806;2023-04-26T12:45:32;99788.50;;;16.02;36.01
68301;BME280;55146;47.468;18.806;2023-04-26T12:47:57;99786.94;;;15.87;33.78
68301;BME280;55146;47.468;18.806;2023-04-26T12:50:23;99815.34;;;15.48;33.58
68301;BME280;55146;47.468;18.806;2023-04-26T12:52:48;99796.06;;;15.07;34.71
68301;BME280;55146;47.468;18.806;2023-04-26T12:55:15;99801.84;;;14.70;36.71
68301;BME280;55146;47.468;18.806;2023-04-26T12:57:42;99812.22;;;14.64;37.09
68301;BME280;55146;47.468;18.806;2023-04-26T13:00:10;99815.88;;;14.32;35.58
68301;BME280;55146;47.468;18.806;2023-04-26T13:02:36;99814.81;;;14.14;36.11
68301;BME280;55146;47.468;18.806;2023-04-26T13:05:02;99823.75;;;13.79;36.55
68301;BME280;55146;47.468;18.806;2023-04-26T13:07:31;99818.06;;;14.03;36.59
68301;BME280;55146;47.468;18.806;2023-04-26T13:09:58;99812.38;;;14.27;35.56
68301;BME280;55146;47.468;18.806;2023-04-26T13:12:24;99824.44;;;14.03;34.88
68301;BME280;55146;47.468;18.806;2023-04-26T13:14:49;99824.84;;;14.10;36.92
68301;BME280;55146;47.468;18.806;2023-04-26T13:17:14;99825.72;;;14.25;37.37
68301;BME280;55146;47.468;18.806;2023-04-26T13:19:40;99821.56;;;14.54;37.00
68301;BME280;55146;47.468;18.806;2023-04-26T13:22:06;99818.16;;;14.98;36.34
68301;BME280;55146;47.468;18.806;2023-04-26T13:24:33;99819.56;;;15.10;36.51